Terminal Aerodrome Forecast
Issued by NWS Upton, NY

Home | Current Version | Previous Version | Text Only | Print | Product List | Glossary On
Versions: 1 2 3 4 5 6 7 8 9 10 11 12 13 14 15 16 17 18 19 20 21 22 23 24 25 26 27 28 29 30
000
FTUS41 KOKX 211100 RRA
TAFEWR
TAF
KEWR 211141Z 2112/2218 VRB03KT P6SM SCT050 BKN100
     FM211600 14004KT P6SM SCT050 BKN080
     FM212300 03005KT 6SM -RA BKN035
     FM220700 02009G15KT 6SM -RA BKN015
     FM221100 02013G19KT 6SM -RA BKN010=

USA.gov is the U.S. government's official web portal to all federal, state and local government web resources and services.